Latest Weather Observations for Kalumburu

IDW60801

Issued at 2:31 pm WST Tuesday 3 May 2016 (issued every 30 minutes, with the page automatically refreshed every 10 minutes)

About weather observations | Map of weather stations | Latest weather observations for WA | Other Formats
Station Details ID: 001019 Name: KALUMBURU Lat: -14.30 Lon: 126.65 Height: 23.0 m
Data from the previous 72 hours. | See also: Recent months at Kalumburu
Date/Time
WST
Temp
°C
App
Temp
°C
Dew
Point
Rel
Hum
%
Delta-T
°C
Wind Press
QNH
hPa
Press
MSL
hPa
Rain
since 9 am
mm
Dir
 
Spd
km/h
Gust
km/h
Spd
kts
Gust
kts
03/02:30pm 31.8 35.8 23.1 60 6.0 NE 7 13 4 7 1008.9 1008.8 0.4
03/02:00pm 29.2 33.8 24.1 74 3.5 W 7 11 4 6 1008.8 1008.7 0.4
03/01:30pm 27.8 31.7 23.6 78 2.9 WNW 9 13 5 7 1009.0 1008.9 0.4
03/01:00pm 27.2 31.3 23.2 79 2.7 NW 7 13 4 7 1009.5 1009.4 0.4
03/12:30pm 26.9 30.8 22.9 79 2.7 N 7 15 4 8 1010.1 1010.0 0.4
03/12:00pm 29.5 29.3 18.6 52 7.0 ENE 17 30 9 16 1010.3 1010.2 0.4
03/11:30am 35.2 37.4 21.1 43 9.5 ENE 11 17 6 9 1010.2 1010.1 0.0
03/11:00am 34.1 35.6 20.5 45 9.1 ENE 13 22 7 12 1010.8 1010.7 0.0
03/10:30am 34.6 36.1 21.3 46 9.0 NE 15 24 8 13 1011.4 1011.3 0.0
03/10:00am 33.5 34.7 20.6 46 8.6 NE 15 28 8 15 1011.9 1011.8 0.0
03/09:30am 34.4 36.2 21.1 45 9.0 ENE 13 20 7 11 1012.2 1012.1 0.0
03/09:00am 33.6 34.7 19.7 44 9.2 NE 13 26 7 14 1012.2 1012.1 0.0
03/08:30am 32.9 37.0 23.0 56 6.8 SSW 6 7 3 4 1012.1 1012.0 0.0
03/08:00am 31.3 35.3 23.7 64 5.3 SSW 9 11 5 6 1011.8 1011.7 0.0
03/07:30am 29.5 33.9 23.4 69 4.2 S 6 7 3 4 1011.6 1011.5 0.0
03/07:00am 27.8 34.1 24.8 84 2.1 CALM 0 7 0 4 1011.3 1011.2 0.0
03/06:30am 25.2 30.7 23.4 90 1.2 CALM 0 0 0 0 1011.1 1011.0 0.0
03/06:00am 24.2 29.0 22.1 88 1.4 CALM 0 0 0 0 1011.3 1011.2 0.0
03/05:30am 24.9 30.2 23.1 90 1.2 CALM 0 0 0 0 1011.0 1010.9 0.0
03/05:00am 24.6 29.3 22.7 89 1.3 SE 2 6 1 3 1010.8 1010.7 0.0
03/04:30am 24.3 28.4 22.2 88 1.4 SSE 4 7 2 4 1010.8 1010.7 0.0
03/04:00am 24.7 29.9 22.8 89 1.3 CALM 0 0 0 0 1010.5 1010.4 0.0
03/03:30am 24.6 29.6 22.5 88 1.4 CALM 0 0 0 0 1010.4 1010.3 0.0
03/03:00am 24.9 29.2 22.6 87 1.5 S 4 9 2 5 1010.3 1010.2 0.0
03/02:30am 25.2 29.4 23.1 88 1.4 SSW 6 7 3 4 1010.5 1010.4 0.0
03/02:00am 25.2 29.4 23.1 88 1.4 SSE 6 7 3 4 1010.9 1010.8 0.0
03/01:30am 25.2 30.5 23.1 88 1.4 CALM 0 0 0 0 1011.2 1011.1 0.0
03/01:00am 25.0 30.0 22.5 86 1.7 CALM 0 0 0 0 1011.4 1011.3 0.0
03/12:30am 25.5 30.9 23.2 87 1.6 CALM 0 0 0 0 1011.7 1011.6 0.0
03/12:00am 25.5 30.8 23.0 86 1.7 CALM 0 0 0 0 1012.0 1011.9 0.0
 
Date/Time
WST
Temp
°C
App
Temp
°C
Dew
Point
Rel
Hum
%
Delta-T
°C
Wind Press
QNH
hPa
Press
MSL
hPa
Rain
since 9 am
mm
Dir
 
Spd
km/h
Gust
km/h
Spd
kts
Gust
kts
02/11:30pm 25.7 30.9 22.8 84 2.0 CALM 0 0 0 0 1012.2 1012.1 0.0
02/11:00pm 26.5 31.7 23.6 84 2.0 S 2 7 1 4 1012.3 1012.2 0.0
02/10:30pm 26.6 31.8 22.9 80 2.5 CALM 0 0 0 0 1012.6 1012.5 0.0
02/10:00pm 27.3 32.5 22.9 77 3.0 CALM 0 0 0 0 1012.8 1012.7 0.0
02/09:30pm 28.2 33.5 23.1 74 3.5 CALM 0 0 0 0 1013.1 1013.0 0.0
02/09:00pm 28.3 33.7 23.2 74 3.5 CALM 0 0 0 0 1013.1 1013.0 0.0
02/08:30pm 28.4 33.5 22.6 71 3.9 CALM 0 0 0 0 1013.1 1013.0 0.0
02/08:00pm 29.1 33.0 22.6 68 4.4 NNE 6 9 3 5 1013.0 1012.9 0.0
02/07:30pm 29.6 32.9 22.6 66 4.8 NNE 9 11 5 6 1012.4 1012.3 0.0
02/07:00pm 30.1 33.6 22.8 65 5.0 NNE 9 17 5 9 1011.9 1011.8 0.0
02/06:30pm 30.0 34.1 23.9 70 4.2 NNW 9 13 5 7 1011.5 1011.4 0.0
02/06:00pm 30.2 33.1 23.9 69 4.4 N 15 26 8 14 1011.1 1011.0 0.0
02/05:30pm 30.5 33.2 22.9 64 5.2 NNW 13 19 7 10 1010.6 1010.5 0.0
02/05:00pm 31.4 33.4 21.6 56 6.6 NNW 13 17 7 9 1010.1 1010.0 0.0
02/04:30pm 32.3 34.8 22.4 56 6.8 NNW 13 20 7 11 1009.7 1009.6 0.0
02/04:00pm 33.7 35.5 21.2 48 8.5 N 13 20 7 11 1009.2 1009.1 0.0
02/03:30pm 34.2 34.6 19.1 41 9.9 N 15 20 8 11 1008.8 1008.7 0.0
02/03:00pm 33.8 35.6 18.3 39 10.1 NNE 6 15 3 8 1008.7 1008.6 0.0
02/02:30pm 33.5 33.5 17.2 37 10.4 ENE 13 24 7 13 1009.4 1009.3 0.0
02/02:00pm 35.3 35.2 20.0 40 10.2 N 20 28 11 15 1009.0 1008.9 0.0
02/01:30pm 34.9 33.9 18.0 36 11.0 N 20 28 11 15 1008.9 1008.8 0.0
02/01:00pm 34.4 34.3 18.8 39 10.2 NW 17 24 9 13 1009.3 1009.2 0.0
02/12:30pm 35.5 35.9 19.0 37 10.9 NW 15 22 8 12 1009.7 1009.6 0.0
02/12:00pm 36.4 37.0 19.4 37 11.3 NW 15 20 8 11 1010.3 1010.2 0.0
02/11:30am 36.9 36.5 18.9 34 11.9 NNW 19 26 10 14 1010.7 1010.6 0.0
02/11:00am 36.2 36.3 17.4 33 12.2 NNE 13 19 7 10 1011.0 1010.9 0.0
02/10:30am 36.9 37.6 18.0 33 12.3 ENE 11 17 6 9 1011.5 1011.4 0.0
02/10:00am 36.1 37.1 17.7 33 11.9 NNW 9 15 5 8 1011.8 1011.7 0.0
02/09:30am 34.9 36.6 18.5 38 10.7 WNW 7 13 4 7 1012.2 1012.1 0.0
02/09:00am 35.1 37.1 19.1 39 10.6 SSW 7 11 4 6 1012.3 1012.2 0.0
02/08:30am 32.8 36.4 22.0 53 7.4 SSW 6 9 3 5 1012.4 1012.3 0.0
02/08:00am 30.2 35.4 22.9 65 5.0 CALM 0 6 0 3 1012.6 1012.5 0.0
02/07:30am 29.2 32.8 22.4 66 4.6 S 7 9 4 5 1012.5 1012.4 0.0
02/07:00am 28.8 32.6 22.8 70 4.1 S 7 9 4 5 1012.2 1012.1 0.0
02/06:30am 26.3 31.2 23.6 85 1.8 SSW 4 7 2 4 1011.5 1011.4 0.0
02/06:00am 23.9 28.6 22.0 89 1.3 CALM 0 0 0 0 1011.1 1011.0 0.0
02/05:30am 23.4 27.8 21.3 88 1.4 CALM 0 0 0 0 1010.6 1010.5 0.0
02/05:00am 23.5 27.9 21.4 88 1.4 CALM 0 0 0 0 1010.2 1010.1 0.0
02/04:30am 23.5 28.0 21.6 89 1.3 CALM 0 0 0 0 1009.8 1009.7 0.0
02/04:00am 23.4 27.8 21.3 88 1.4 CALM 0 0 0 0 1009.6 1009.5 0.0
02/03:30am 23.8 28.5 21.9 89 1.3 CALM 0 0 0 0 1009.5 1009.4 0.0
02/03:00am 23.4 27.8 21.3 88 1.4 CALM 0 0 0 0 1009.5 1009.4 0.0
02/02:30am 23.8 28.4 21.7 88 1.4 CALM 0 0 0 0 1009.6 1009.5 0.0
02/02:00am 23.9 28.4 21.6 87 1.5 CALM 0 0 0 0 1009.6 1009.5 0.0
02/01:30am 24.2 28.8 21.7 86 1.7 CALM 0 0 0 0 1009.6 1009.5 0.0
02/01:00am 24.4 29.2 22.1 87 1.5 CALM 0 0 0 0 1010.1 1010.0 0.0
02/12:30am 24.7 29.6 22.4 87 1.5 CALM 0 0 0 0 1010.4 1010.3 0.0
02/12:00am 24.6 29.4 22.1 86 1.7 CALM 0 0 0 0 1010.7 1010.6 0.0
 
Date/Time
WST
Temp
°C
App
Temp
°C
Dew
Point
Rel
Hum
%
Delta-T
°C
Wind Press
QNH
hPa
Press
MSL
hPa
Rain
since 9 am
mm
Dir
 
Spd
km/h
Gust
km/h
Spd
kts
Gust
kts
01/11:30pm 24.8 29.5 21.9 84 1.9 CALM 0 0 0 0 1011.0 1010.9 0.0
01/11:00pm 25.2 30.0 22.1 83 2.1 CALM 0 0 0 0 1011.2 1011.1 0.0
01/10:30pm 25.4 30.2 22.1 82 2.2 CALM 0 0 0 0 1011.4 1011.3 0.0
01/10:00pm 25.6 30.5 22.3 82 2.2 CALM 0 0 0 0 1011.7 1011.6 0.0
01/09:30pm 26.0 30.9 22.3 80 2.5 CALM 0 0 0 0 1011.8 1011.7 0.0
01/09:00pm 26.6 31.7 22.7 79 2.6 CALM 0 0 0 0 1011.8 1011.7 0.0
01/08:30pm 27.1 32.0 22.3 75 3.2 CALM 0 0 0 0 1011.8 1011.7 0.0
01/08:00pm 28.4 32.9 22.2 69 4.2 NNE 2 6 1 3 1011.8 1011.7 0.0
01/07:30pm 28.7 31.9 21.7 66 4.7 NE 7 9 4 5 1011.4 1011.3 0.0
01/07:00pm 29.6 32.9 21.8 63 5.3 NNE 7 9 4 5 1011.1 1011.0 0.0
01/06:30pm 30.6 33.7 21.4 58 6.2 N 7 11 4 6 1010.5 1010.4 0.0
01/06:00pm 31.3 33.6 20.6 53 7.1 N 9 15 5 8 1010.0 1009.9 0.0
01/05:30pm 32.4 33.1 19.6 46 8.4 N 15 20 8 11 1009.8 1009.7 0.0
01/05:00pm 33.9 33.7 16.7 35 11.0 N 13 24 7 13 1009.2 1009.1 0.0
01/04:30pm 36.4 36.5 14.4 27 13.7 SE 7 13 4 7 1008.6 1008.5 0.0
01/04:00pm 37.1 36.6 13.8 25 14.4 E 9 15 5 8 1008.1 1007.9 0.0
01/03:30pm 37.3 36.9 14.0 25 14.4 E 9 13 5 7 1007.9 1007.7 0.0
01/03:00pm 38.0 37.7 14.5 24 14.7 ENE 9 15 5 8 1007.8 1007.6 0.0
01/02:30pm 37.8 37.3 13.8 24 14.8 E 9 17 5 9 1008.0 1007.8 0.0
01/02:00pm 36.8 35.8 13.5 24 14.3 ENE 11 20 6 11 1008.3 1008.1 0.0
01/01:30pm 38.1 37.7 14.0 24 15.0 ESE 9 15 5 8 1008.6 1008.5 0.0
01/01:00pm 37.8 37.3 13.8 24 14.9 ENE 9 13 5 7 1009.1 1009.0 0.0
01/12:30pm 37.6 36.9 14.2 25 14.5 NNE 11 20 6 11 1009.4 1009.3 0.0
01/12:00pm 37.8 36.7 13.1 23 15.1 E 11 19 6 10 1010.0 1009.9 0.0
01/11:30am 37.7 37.2 13.7 24 14.8 ESE 9 15 5 8 1010.5 1010.4 0.0
01/11:00am 37.3 37.3 15.2 27 13.9 S 9 13 5 7 1011.1 1011.0 0.0
01/10:30am 36.9 37.4 16.5 30 13.1 S 9 17 5 9 1011.5 1011.4 0.0
01/10:00am 35.7 36.0 16.9 32 12.1 S 11 15 6 8 1011.9 1011.8 0.0
01/09:30am 34.2 35.0 17.4 36 10.8 S 9 15 5 8 1012.4 1012.3 0.0
01/09:00am 32.3 34.3 19.9 48 8.2 S 9 13 5 7 1012.5 1012.4 0.0
01/08:30am 30.6 32.7 20.2 53 6.9 S 9 15 5 8 1012.6 1012.5 0.0
01/08:00am 29.2 31.5 20.6 59 5.7 S 9 15 5 8 1012.6 1012.5 0.0
01/07:30am 26.8 30.0 21.6 73 3.5 S 7 11 4 6 1012.6 1012.4 0.0
01/07:00am 24.1 29.1 22.5 91 1.1 CALM 0 0 0 0 1012.4 1012.2 0.0
01/06:30am 22.4 26.6 20.9 91 1.0 CALM 0 0 0 0 1012.3 1012.1 0.0
01/06:00am 21.3 24.8 19.6 90 1.1 CALM 0 0 0 0 1012.1 1011.9 0.0
01/05:30am 20.7 23.9 18.8 89 1.2 CALM 0 0 0 0 1011.9 1011.7 0.0
01/05:00am 21.4 25.0 19.7 90 1.1 CALM 0 0 0 0 1011.6 1011.4 0.0
01/04:30am 21.0 24.4 19.3 90 1.1 CALM 0 0 0 0 1011.3 1011.1 0.0
01/04:00am 20.4 23.3 18.2 87 1.4 CALM 0 0 0 0 1011.2 1011.0 0.0
01/03:30am 21.5 25.0 19.6 89 1.2 CALM 0 0 0 0 1011.0 1010.8 0.0
01/03:00am 21.5 25.0 19.6 89 1.2 CALM 0 0 0 0 1010.6 1010.4 0.0
01/02:30am 21.5 25.0 19.6 89 1.2 CALM 0 0 0 0 1010.4 1010.2 0.0
01/02:00am 21.7 25.2 19.6 88 1.3 CALM 0 0 0 0 1010.5 1010.3 0.0
01/01:30am 22.4 26.4 20.5 89 1.2 CALM 0 0 0 0 1010.6 1010.4 0.0
01/01:00am 22.1 25.8 20.0 88 1.4 CALM 0 0 0 0 1010.8 1010.6 0.0
01/12:30am 22.3 26.1 20.2 88 1.4 CALM 0 0 0 0 1010.9 1010.7 0.0
01/12:00am 22.9 27.0 20.8 88 1.4 CALM 0 0 0 0 1011.2 1011.0 0.0
 
Date/Time
WST
Temp
°C
App
Temp
°C
Dew
Point
Rel
Hum
%
Delta-T
°C
Wind Press
QNH
hPa
Press
MSL
hPa
Rain
since 9 am
mm
Dir
 
Spd
km/h
Gust
km/h
Spd
kts
Gust
kts
30/11:30pm 23.0 27.1 20.7 87 1.5 CALM 0 0 0 0 1011.6 1011.4 0.0
30/11:00pm 23.2 27.2 20.5 85 1.8 CALM 0 0 0 0 1011.7 1011.5 0.0
30/10:30pm 23.9 28.1 21.0 84 1.9 CALM 0 0 0 0 1011.8 1011.6 0.0
30/10:00pm 23.9 27.9 20.6 82 2.2 CALM 0 0 0 0 1012.0 1011.8 0.0
30/09:30pm 24.7 29.1 21.4 82 2.2 CALM 0 0 0 0 1011.9 1011.7 0.0
30/09:00pm 25.1 29.1 21.4 80 2.5 SSW 2 7 1 4 1012.1 1011.9 0.0
30/08:30pm 26.2 30.7 21.6 76 3.1 CALM 0 0 0 0 1012.2 1012.0 0.0
30/08:00pm 26.8 30.0 21.3 72 3.7 N 6 7 3 4 1012.1 1011.9 0.0
30/07:30pm 27.3 31.3 21.3 69 4.0 NNE 2 6 1 3 1011.9 1011.7 0.0
30/07:00pm 28.0 31.6 20.6 64 4.9 NNE 2 7 1 4 1011.3 1011.1 0.0
30/06:30pm 29.8 32.1 20.6 57 6.1 NNE 9 13 5 7 1010.7 1010.5 0.0
30/06:00pm 30.3 32.7 20.8 56 6.3 N 9 13 5 7 1010.3 1010.1 0.0
30/05:30pm 31.5 33.1 19.2 48 8.0 NNE 9 15 5 8 1010.1 1009.9 0.0
30/05:00pm 31.9 32.5 17.8 43 9.1 NNW 11 17 6 9 1009.5 1009.3 0.0
30/04:30pm 33.7 33.8 16.6 36 10.9 NNW 11 17 6 9 1008.9 1008.7 0.0
30/04:00pm 35.7 35.4 14.4 28 13.2 NNW 9 13 5 7 1008.4 1008.2 0.0
30/03:30pm 35.8 34.4 14.4 27 13.3 NNW 15 19 8 10 1008.3 1008.1 0.0
30/03:00pm 36.3 35.2 14.3 27 13.7 NW 13 20 7 11 1008.2 1008.0 0.0

Other Formats:

Comma delimited format used in spreadsheet applications
http://www.bom.gov.au/fwo/IDW60801/IDW60801.94100.axf

JavaScript Object Notation format (JSON) in row-major order
http://www.bom.gov.au/fwo/IDW60801/IDW60801.94100.json